sensor_id;sensor_type;location;lat;lon;timestamp;pressure;altitude;pressure_sealevel;temperature;humidity
48358;BME280;41929;51.478;-0.026;2022-12-18T00:01:24;79583.09;;;-143.00;100.00
48358;BME280;41929;51.478;-0.026;2022-12-18T00:03:50;79620.63;;;-143.00;100.00
48358;BME280;41929;51.478;-0.026;2022-12-18T00:06:16;79654.19;;;-143.00;100.00
48358;BME280;41929;51.478;-0.026;2022-12-18T00:08:44;79687.72;;;-143.00;100.00
48358;BME280;41929;51.478;-0.026;2022-12-18T00:11:15;79687.72;;;-143.00;100.00
48358;BME280;41929;51.478;-0.026;2022-12-18T00:13:41;79675.88;;;-143.00;100.00
48358;BME280;41929;51.478;-0.026;2022-12-18T00:16:10;79685.75;;;-143.00;100.00
48358;BME280;41929;51.478;-0.026;2022-12-18T00:18:36;79677.88;;;-143.00;100.00
48358;BME280;41929;51.478;-0.026;2022-12-18T00:21:04;79658.13;;;-143.00;100.00
48358;BME280;41929;51.478;-0.026;2022-12-18T00:23:31;79638.38;;;-143.00;100.00
48358;BME280;41929;51.478;-0.026;2022-12-18T00:26:01;79606.78;;;-143.00;100.00
48358;BME280;41929;51.478;-0.026;2022-12-18T00:28:26;79589.03;;;-143.00;100.00
48358;BME280;41929;51.478;-0.026;2022-12-18T00:31:02;79573.25;;;-143.00;100.00
48358;BME280;41929;51.478;-0.026;2022-12-18T00:33:28;79575.22;;;-143.00;100.00
48358;BME280;41929;51.478;-0.026;2022-12-18T00:35:54;79587.06;;;-143.00;100.00
48358;BME280;41929;51.478;-0.026;2022-12-18T00:38:19;79591.00;;;-143.00;100.00
48358;BME280;41929;51.478;-0.026;2022-12-18T00:40:45;79575.22;;;-143.00;100.00
48358;BME280;41929;51.478;-0.026;2022-12-18T00:43:10;79585.09;;;-143.00;100.00
48358;BME280;41929;51.478;-0.026;2022-12-18T00:45:36;79579.16;;;-143.00;100.00
48358;BME280;41929;51.478;-0.026;2022-12-18T00:48:02;79585.09;;;-143.00;100.00
48358;BME280;41929;51.478;-0.026;2022-12-18T00:50:27;79587.06;;;-143.00;100.00
48358;BME280;41929;51.478;-0.026;2022-12-18T00:52:52;79592.97;;;-143.00;100.00
48358;BME280;41929;51.478;-0.026;2022-12-18T00:55:18;79602.84;;;-143.00;100.00
48358;BME280;41929;51.478;-0.026;2022-12-18T00:57:44;79596.94;;;-143.00;100.00
48358;BME280;41929;51.478;-0.026;2022-12-18T01:00:14;79589.03;;;-143.00;100.00
48358;BME280;41929;51.478;-0.026;2022-12-18T01:02:40;79585.09;;;-143.00;100.00
48358;BME280;41929;51.478;-0.026;2022-12-18T01:05:06;79585.09;;;-143.00;100.00
48358;BME280;41929;51.478;-0.026;2022-12-18T01:07:31;79581.13;;;-143.00;100.00
48358;BME280;41929;51.478;-0.026;2022-12-18T01:09:57;79587.06;;;-143.00;100.00
48358;BME280;41929;51.478;-0.026;2022-12-18T01:12:22;79577.19;;;-143.00;100.00
48358;BME280;41929;51.478;-0.026;2022-12-18T01:14:47;79563.38;;;-143.00;100.00
48358;BME280;41929;51.478;-0.026;2022-12-18T01:17:13;79567.31;;;-143.00;100.00
48358;BME280;41929;51.478;-0.026;2022-12-18T01:19:38;79569.28;;;-143.00;100.00
48358;BME280;41929;51.478;-0.026;2022-12-18T01:22:03;79559.41;;;-143.00;100.00
48358;BME280;41929;51.478;-0.026;2022-12-18T01:24:29;79561.41;;;-143.00;100.00
48358;BME280;41929;51.478;-0.026;2022-12-18T01:26:54;79559.41;;;-143.00;100.00
48358;BME280;41929;51.478;-0.026;2022-12-18T01:29:21;79555.47;;;-143.00;100.00
48358;BME280;41929;51.478;-0.026;2022-12-18T01:31:47;79561.41;;;-143.00;100.00
48358;BME280;41929;51.478;-0.026;2022-12-18T01:34:13;79563.38;;;-143.00;100.00
48358;BME280;41929;51.478;-0.026;2022-12-18T01:36:38;79573.25;;;-143.00;100.00
48358;BME280;41929;51.478;-0.026;2022-12-18T01:39:10;79569.28;;;-143.00;100.00
48358;BME280;41929;51.478;-0.026;2022-12-18T01:41:36;79583.09;;;-143.00;100.00
48358;BME280;41929;51.478;-0.026;2022-12-18T01:49:51;79565.34;;;-143.00;100.00
48358;BME280;41929;51.478;-0.026;2022-12-18T01:52:18;79565.34;;;-143.00;100.00
48358;BME280;41929;51.478;-0.026;2022-12-18T01:54:44;79577.19;;;-143.00;100.00
48358;BME280;41929;51.478;-0.026;2022-12-18T01:57:11;79591.00;;;-143.00;100.00
48358;BME280;41929;51.478;-0.026;2022-12-18T01:59:36;79600.88;;;-143.00;100.00
48358;BME280;41929;51.478;-0.026;2022-12-18T02:02:04;79594.94;;;-143.00;100.00
48358;BME280;41929;51.478;-0.026;2022-12-18T02:04:29;79594.94;;;-143.00;100.00
48358;BME280;41929;51.478;-0.026;2022-12-18T02:10:10;79585.09;;;-143.00;100.00
48358;BME280;41929;51.478;-0.026;2022-12-18T02:12:19;79589.03;;;-143.00;100.00
48358;BME280;41929;51.478;-0.026;2022-12-18T02:14:58;79594.94;;;-143.00;100.00
48358;BME280;41929;51.478;-0.026;2022-12-18T02:17:50;79575.22;;;-143.00;100.00
48358;BME280;41929;51.478;-0.026;2022-12-18T02:27:56;79577.19;;;-143.00;100.00
48358;BME280;41929;51.478;-0.026;2022-12-18T02:30:26;79587.06;;;-143.00;100.00
48358;BME280;41929;51.478;-0.026;2022-12-18T02:32:53;79587.06;;;-143.00;100.00
48358;BME280;41929;51.478;-0.026;2022-12-18T02:35:22;79587.06;;;-143.00;100.00
48358;BME280;41929;51.478;-0.026;2022-12-18T02:37:49;79581.13;;;-143.00;100.00
48358;BME280;41929;51.478;-0.026;2022-12-18T02:40:15;79573.25;;;-143.00;100.00
48358;BME280;41929;51.478;-0.026;2022-12-18T02:42:42;79587.06;;;-143.00;100.00
48358;BME280;41929;51.478;-0.026;2022-12-18T02:45:08;79594.94;;;-143.00;100.00
48358;BME280;41929;51.478;-0.026;2022-12-18T02:47:37;79594.94;;;-143.00;100.00
48358;BME280;41929;51.478;-0.026;2022-12-18T02:50:27;79585.09;;;-143.00;100.00
48358;BME280;41929;51.478;-0.026;2022-12-18T02:56:06;79608.78;;;-143.00;100.00
48358;BME280;41929;51.478;-0.026;2022-12-18T02:59:15;79598.91;;;-143.00;100.00
48358;BME280;41929;51.478;-0.026;2022-12-18T03:04:17;79594.94;;;-143.00;100.00
48358;BME280;41929;51.478;-0.026;2022-12-18T03:06:49;79592.97;;;-143.00;100.00
48358;BME280;41929;51.478;-0.026;2022-12-18T03:09:43;79594.94;;;-143.00;100.00
48358;BME280;41929;51.478;-0.026;2022-12-18T03:12:27;79589.03;;;-143.00;100.00
48358;BME280;41929;51.478;-0.026;2022-12-18T03:15:17;79585.09;;;-143.00;100.00
48358;BME280;41929;51.478;-0.026;2022-12-18T03:17:46;79577.19;;;-143.00;100.00
48358;BME280;41929;51.478;-0.026;2022-12-18T03:20:17;79557.44;;;-143.00;100.00
48358;BME280;41929;51.478;-0.026;2022-12-18T03:22:47;79553.50;;;-143.00;100.00
48358;BME280;41929;51.478;-0.026;2022-12-18T03:25:16;79553.50;;;-143.00;100.00
48358;BME280;41929;51.478;-0.026;2022-12-18T03:27:46;79547.56;;;-143.00;100.00
48358;BME280;41929;51.478;-0.026;2022-12-18T03:30:15;79557.44;;;-143.00;100.00
48358;BME280;41929;51.478;-0.026;2022-12-18T03:35:50;79531.78;;;-143.00;100.00
48358;BME280;41929;51.478;-0.026;2022-12-18T03:38:16;79525.88;;;-143.00;100.00
48358;BME280;41929;51.478;-0.026;2022-12-18T03:40:56;79529.81;;;-143.00;100.00
48358;BME280;41929;51.478;-0.026;2022-12-18T03:46:28;79525.88;;;-143.00;100.00
48358;BME280;41929;51.478;-0.026;2022-12-18T03:49:34;79525.88;;;-143.00;100.00
48358;BME280;41929;51.478;-0.026;2022-12-18T03:51:56;79527.84;;;-143.00;100.00
48358;BME280;41929;51.478;-0.026;2022-12-18T03:54:24;79539.69;;;-143.00;100.00
48358;BME280;41929;51.478;-0.026;2022-12-18T03:56:57;79543.63;;;-143.00;100.00
48358;BME280;41929;51.478;-0.026;2022-12-18T03:59:24;79539.69;;;-143.00;100.00
48358;BME280;41929;51.478;-0.026;2022-12-18T04:01:52;79523.88;;;-143.00;100.00
48358;BME280;41929;51.478;-0.026;2022-12-18T04:04:19;79521.91;;;-143.00;100.00
48358;BME280;41929;51.478;-0.026;2022-12-18T04:06:46;79519.94;;;-143.00;100.00
48358;BME280;41929;51.478;-0.026;2022-12-18T04:09:13;79502.19;;;-143.00;100.00
48358;BME280;41929;51.478;-0.026;2022-12-18T04:11:41;79488.34;;;-143.00;100.00
48358;BME280;41929;51.478;-0.026;2022-12-18T04:14:09;79470.59;;;-143.00;100.00
48358;BME280;41929;51.478;-0.026;2022-12-18T04:16:34;79468.63;;;-143.00;100.00
48358;BME280;41929;51.478;-0.026;2022-12-18T04:18:59;79472.56;;;-143.00;100.00
48358;BME280;41929;51.478;-0.026;2022-12-18T04:21:25;79474.53;;;-143.00;100.00
48358;BME280;41929;51.478;-0.026;2022-12-18T04:23:50;79478.50;;;-143.00;100.00
48358;BME280;41929;51.478;-0.026;2022-12-18T04:26:16;79482.44;;;-143.00;100.00
48358;BME280;41929;51.478;-0.026;2022-12-18T04:28:41;79476.50;;;-143.00;100.00
48358;BME280;41929;51.478;-0.026;2022-12-18T04:31:06;79480.47;;;-143.00;100.00
48358;BME280;41929;51.478;-0.026;2022-12-18T04:33:32;79476.50;;;-143.00;100.00
48358;BME280;41929;51.478;-0.026;2022-12-18T04:35:57;79480.47;;;-143.00;100.00
48358;BME280;41929;51.478;-0.026;2022-12-18T04:38:23;79484.41;;;-143.00;100.00
48358;BME280;41929;51.478;-0.026;2022-12-18T04:40:48;79466.66;;;-143.00;100.00
48358;BME280;41929;51.478;-0.026;2022-12-18T04:43:13;79466.66;;;-143.00;100.00
48358;BME280;41929;51.478;-0.026;2022-12-18T04:45:39;79468.63;;;-143.00;100.00
48358;BME280;41929;51.478;-0.026;2022-12-18T04:48:04;79470.59;;;-143.00;100.00
48358;BME280;41929;51.478;-0.026;2022-12-18T04:50:30;79462.69;;;-143.00;100.00
48358;BME280;41929;51.478;-0.026;2022-12-18T04:52:56;79460.72;;;-143.00;100.00
48358;BME280;41929;51.478;-0.026;2022-12-18T04:55:21;79456.78;;;-143.00;100.00
48358;BME280;41929;51.478;-0.026;2022-12-18T04:57:46;79440.97;;;-143.00;100.00
48358;BME280;41929;51.478;-0.026;2022-12-18T05:00:12;79439.00;;;-143.00;100.00
48358;BME280;41929;51.478;-0.026;2022-12-18T05:02:38;79435.06;;;-143.00;100.00
48358;BME280;41929;51.478;-0.026;2022-12-18T05:05:04;79421.25;;;-143.00;100.00
48358;BME280;41929;51.478;-0.026;2022-12-18T05:07:29;79405.44;;;-143.00;100.00
48358;BME280;41929;51.478;-0.026;2022-12-18T05:09:54;79393.63;;;-143.00;100.00
48358;BME280;41929;51.478;-0.026;2022-12-18T05:12:20;79373.88;;;-143.00;100.00
48358;BME280;41929;51.478;-0.026;2022-12-18T05:14:45;79362.03;;;-143.00;100.00
48358;BME280;41929;51.478;-0.026;2022-12-18T05:17:10;79356.09;;;-143.00;100.00
48358;BME280;41929;51.478;-0.026;2022-12-18T05:19:36;79350.19;;;-143.00;100.00
48358;BME280;41929;51.478;-0.026;2022-12-18T05:22:01;79350.19;;;-143.00;100.00
48358;BME280;41929;51.478;-0.026;2022-12-18T05:24:26;79344.25;;;-143.00;100.00
48358;BME280;41929;51.478;-0.026;2022-12-18T05:26:52;79340.31;;;-143.00;100.00
48358;BME280;41929;51.478;-0.026;2022-12-18T05:29:17;79334.41;;;-143.00;100.00
48358;BME280;41929;51.478;-0.026;2022-12-18T05:31:43;79334.41;;;-143.00;100.00
48358;BME280;41929;51.478;-0.026;2022-12-18T05:34:08;79338.34;;;-143.00;100.00
48358;BME280;41929;51.478;-0.026;2022-12-18T05:36:33;79332.41;;;-143.00;100.00
48358;BME280;41929;51.478;-0.026;2022-12-18T05:38:59;79318.59;;;-143.00;100.00
48358;BME280;41929;51.478;-0.026;2022-12-18T05:41:25;79300.84;;;-143.00;100.00
48358;BME280;41929;51.478;-0.026;2022-12-18T05:43:51;79287.03;;;-143.00;100.00
48358;BME280;41929;51.478;-0.026;2022-12-18T05:46:17;79281.09;;;-143.00;100.00
48358;BME280;41929;51.478;-0.026;2022-12-18T05:48:44;79281.09;;;-143.00;100.00
48358;BME280;41929;51.478;-0.026;2022-12-18T05:51:12;79263.34;;;-143.00;100.00
48358;BME280;41929;51.478;-0.026;2022-12-18T05:53:38;79255.44;;;-143.00;100.00
48358;BME280;41929;51.478;-0.026;2022-12-18T05:56:05;79267.28;;;-143.00;100.00
48358;BME280;41929;51.478;-0.026;2022-12-18T05:58:31;79263.34;;;-143.00;100.00
48358;BME280;41929;51.478;-0.026;2022-12-18T06:00:58;79265.31;;;-143.00;100.00
48358;BME280;41929;51.478;-0.026;2022-12-18T06:03:23;79247.53;;;-143.00;100.00
48358;BME280;41929;51.478;-0.026;2022-12-18T06:05:49;79243.59;;;-143.00;100.00
48358;BME280;41929;51.478;-0.026;2022-12-18T06:08:14;79225.84;;;-143.00;100.00
48358;BME280;41929;51.478;-0.026;2022-12-18T06:10:41;79221.88;;;-143.00;100.00
48358;BME280;41929;51.478;-0.026;2022-12-18T06:13:07;79212.00;;;-143.00;100.00
48358;BME280;41929;51.478;-0.026;2022-12-18T06:15:36;79194.25;;;-143.00;100.00
48358;BME280;41929;51.478;-0.026;2022-12-18T06:18:02;79180.44;;;-143.00;100.00
48358;BME280;41929;51.478;-0.026;2022-12-18T06:20:28;79186.34;;;-143.00;100.00
48358;BME280;41929;51.478;-0.026;2022-12-18T06:22:53;79176.50;;;-143.00;100.00
48358;BME280;41929;51.478;-0.026;2022-12-18T06:25:18;79170.56;;;-143.00;100.00
48358;BME280;41929;51.478;-0.026;2022-12-18T06:27:44;79156.75;;;-143.00;100.00
48358;BME280;41929;51.478;-0.026;2022-12-18T06:30:09;79148.84;;;-143.00;100.00
48358;BME280;41929;51.478;-0.026;2022-12-18T06:32:35;79133.06;;;-143.00;100.00
48358;BME280;41929;51.478;-0.026;2022-12-18T06:35:00;79119.25;;;-143.00;100.00
48358;BME280;41929;51.478;-0.026;2022-12-18T06:37:26;79115.31;;;-143.00;100.00
48358;BME280;41929;51.478;-0.026;2022-12-18T06:39:52;79117.28;;;-143.00;100.00
48358;BME280;41929;51.478;-0.026;2022-12-18T06:42:17;79101.47;;;-143.00;100.00
48358;BME280;41929;51.478;-0.026;2022-12-18T06:44:43;79095.56;;;-143.00;100.00
48358;BME280;41929;51.478;-0.026;2022-12-18T06:47:08;79087.66;;;-143.00;100.00
48358;BME280;41929;51.478;-0.026;2022-12-18T06:49:34;79071.88;;;-143.00;100.00
48358;BME280;41929;51.478;-0.026;2022-12-18T06:51:59;79079.78;;;-143.00;100.00
48358;BME280;41929;51.478;-0.026;2022-12-18T06:54:24;79073.84;;;-143.00;100.00
48358;BME280;41929;51.478;-0.026;2022-12-18T06:56:50;79073.84;;;-143.00;100.00
48358;BME280;41929;51.478;-0.026;2022-12-18T06:59:15;79073.84;;;-143.00;100.00
48358;BME280;41929;51.478;-0.026;2022-12-18T07:01:40;79079.78;;;-143.00;100.00
48358;BME280;41929;51.478;-0.026;2022-12-18T07:04:06;79075.81;;;-143.00;100.00
48358;BME280;41929;51.478;-0.026;2022-12-18T07:06:31;79067.94;;;-143.00;100.00
48358;BME280;41929;51.478;-0.026;2022-12-18T07:08:57;79056.09;;;-143.00;100.00
48358;BME280;41929;51.478;-0.026;2022-12-18T07:11:22;79060.03;;;-143.00;100.00
48358;BME280;41929;51.478;-0.026;2022-12-18T07:13:48;79048.19;;;-143.00;100.00
48358;BME280;41929;51.478;-0.026;2022-12-18T07:16:18;79046.22;;;-143.00;100.00
48358;BME280;41929;51.478;-0.026;2022-12-18T07:18:44;79042.28;;;-143.00;100.00
48358;BME280;41929;51.478;-0.026;2022-12-18T07:21:13;79034.38;;;-143.00;100.00
48358;BME280;41929;51.478;-0.026;2022-12-18T07:23:39;79028.47;;;-143.00;100.00
48358;BME280;41929;51.478;-0.026;2022-12-18T07:26:06;79034.38;;;-143.00;100.00
48358;BME280;41929;51.478;-0.026;2022-12-18T07:28:33;79032.41;;;-143.00;100.00
48358;BME280;41929;51.478;-0.026;2022-12-18T07:31:02;79030.44;;;-143.00;100.00
48358;BME280;41929;51.478;-0.026;2022-12-18T07:33:28;79034.38;;;-143.00;100.00
48358;BME280;41929;51.478;-0.026;2022-12-18T07:35:53;79026.47;;;-143.00;100.00
48358;BME280;41929;51.478;-0.026;2022-12-18T07:38:18;79016.63;;;-143.00;100.00
48358;BME280;41929;51.478;-0.026;2022-12-18T07:40:44;79008.72;;;-143.00;100.00
48358;BME280;41929;51.478;-0.026;2022-12-18T07:43:09;79018.59;;;-143.00;100.00
48358;BME280;41929;51.478;-0.026;2022-12-18T07:45:34;79006.75;;;-143.00;100.00
48358;BME280;41929;51.478;-0.026;2022-12-18T07:48:00;79002.78;;;-143.00;100.00
48358;BME280;41929;51.478;-0.026;2022-12-18T07:50:25;78996.88;;;-143.00;100.00
48358;BME280;41929;51.478;-0.026;2022-12-18T07:52:50;78988.97;;;-143.00;100.00
48358;BME280;41929;51.478;-0.026;2022-12-18T07:55:16;78969.25;;;-143.00;100.00
48358;BME280;41929;51.478;-0.026;2022-12-18T07:57:41;78985.03;;;-143.00;100.00
48358;BME280;41929;51.478;-0.026;2022-12-18T08:00:08;78981.09;;;-143.00;100.00
48358;BME280;41929;51.478;-0.026;2022-12-18T08:02:34;78981.09;;;-143.00;100.00
48358;BME280;41929;51.478;-0.026;2022-12-18T08:04:59;78963.31;;;-143.00;100.00
48358;BME280;41929;51.478;-0.026;2022-12-18T08:07:24;78965.28;;;-143.00;100.00
48358;BME280;41929;51.478;-0.026;2022-12-18T08:09:50;78969.25;;;-143.00;100.00
48358;BME280;41929;51.478;-0.026;2022-12-18T08:12:15;78963.31;;;-143.00;100.00
48358;BME280;41929;51.478;-0.026;2022-12-18T08:14:40;78957.41;;;-143.00;100.00
48358;BME280;41929;51.478;-0.026;2022-12-18T08:17:06;78949.50;;;-143.00;100.00
48358;BME280;41929;51.478;-0.026;2022-12-18T08:19:32;78955.44;;;-143.00;100.00
48358;BME280;41929;51.478;-0.026;2022-12-18T08:21:57;78947.53;;;-143.00;100.00
48358;BME280;41929;51.478;-0.026;2022-12-18T08:24:23;78947.53;;;-143.00;100.00
48358;BME280;41929;51.478;-0.026;2022-12-18T08:26:48;78943.59;;;-143.00;100.00
48358;BME280;41929;51.478;-0.026;2022-12-18T08:29:13;78943.59;;;-143.00;100.00
48358;BME280;41929;51.478;-0.026;2022-12-18T08:31:39;78941.63;;;-143.00;100.00
48358;BME280;41929;51.478;-0.026;2022-12-18T08:34:04;78937.66;;;-143.00;100.00
48358;BME280;41929;51.478;-0.026;2022-12-18T08:36:29;78941.63;;;-143.00;100.00
48358;BME280;41929;51.478;-0.026;2022-12-18T08:38:56;78949.50;;;-143.00;100.00
48358;BME280;41929;51.478;-0.026;2022-12-18T08:41:22;78939.63;;;-143.00;100.00
48358;BME280;41929;51.478;-0.026;2022-12-18T08:43:47;78939.63;;;-143.00;100.00
48358;BME280;41929;51.478;-0.026;2022-12-18T08:46:36;78937.66;;;-143.00;100.00
48358;BME280;41929;51.478;-0.026;2022-12-18T08:49:02;78935.69;;;-143.00;100.00
48358;BME280;41929;51.478;-0.026;2022-12-18T08:51:28;78935.69;;;-143.00;100.00
48358;BME280;41929;51.478;-0.026;2022-12-18T08:53:54;78929.78;;;-143.00;100.00
48358;BME280;41929;51.478;-0.026;2022-12-18T08:56:19;78929.78;;;-143.00;100.00
48358;BME280;41929;51.478;-0.026;2022-12-18T08:58:44;78919.91;;;-143.00;100.00
48358;BME280;41929;51.478;-0.026;2022-12-18T09:01:11;78917.94;;;-143.00;100.00
48358;BME280;41929;51.478;-0.026;2022-12-18T09:03:37;78912.00;;;-143.00;100.00
48358;BME280;41929;51.478;-0.026;2022-12-18T09:06:04;78904.13;;;-143.00;100.00
48358;BME280;41929;51.478;-0.026;2022-12-18T09:08:29;78913.97;;;-143.00;100.00
48358;BME280;41929;51.478;-0.026;2022-12-18T09:10:55;78902.13;;;-143.00;100.00
48358;BME280;41929;51.478;-0.026;2022-12-18T09:13:21;78904.13;;;-143.00;100.00
48358;BME280;41929;51.478;-0.026;2022-12-18T09:15:50;78882.41;;;-143.00;100.00
48358;BME280;41929;51.478;-0.026;2022-12-18T09:18:17;78882.41;;;-143.00;100.00
48358;BME280;41929;51.478;-0.026;2022-12-18T09:20:43;78892.28;;;-143.00;100.00
48358;BME280;41929;51.478;-0.026;2022-12-18T09:23:09;78892.28;;;-143.00;100.00
48358;BME280;41929;51.478;-0.026;2022-12-18T09:25:35;78886.34;;;-143.00;100.00
48358;BME280;41929;51.478;-0.026;2022-12-18T09:28:12;78886.34;;;-143.00;100.00
48358;BME280;41929;51.478;-0.026;2022-12-18T09:30:39;78890.28;;;-143.00;100.00
48358;BME280;41929;51.478;-0.026;2022-12-18T09:33:05;78882.41;;;-143.00;100.00
48358;BME280;41929;51.478;-0.026;2022-12-18T09:35:30;78882.41;;;-143.00;100.00
48358;BME280;41929;51.478;-0.026;2022-12-18T09:37:56;78870.56;;;-143.00;100.00
48358;BME280;41929;51.478;-0.026;2022-12-18T09:40:24;78872.53;;;-143.00;100.00
48358;BME280;41929;51.478;-0.026;2022-12-18T09:43:03;78868.59;;;-143.00;100.00
48358;BME280;41929;51.478;-0.026;2022-12-18T09:45:39;78866.63;;;-143.00;100.00
48358;BME280;41929;51.478;-0.026;2022-12-18T09:48:10;78866.63;;;-143.00;100.00
48358;BME280;41929;51.478;-0.026;2022-12-18T09:50:40;78870.56;;;-143.00;100.00
48358;BME280;41929;51.478;-0.026;2022-12-18T09:53:26;78837.00;;;-143.00;100.00
48358;BME280;41929;51.478;-0.026;2022-12-18T09:55:52;78850.81;;;-143.00;100.00
48358;BME280;41929;51.478;-0.026;2022-12-18T09:58:36;78837.00;;;-143.00;100.00
48358;BME280;41929;51.478;-0.026;2022-12-18T10:01:13;78842.94;;;-143.00;100.00
48358;BME280;41929;51.478;-0.026;2022-12-18T10:03:39;78838.97;;;-143.00;100.00
48358;BME280;41929;51.478;-0.026;2022-12-18T10:06:12;78837.00;;;-143.00;100.00
48358;BME280;41929;51.478;-0.026;2022-12-18T10:08:56;78837.00;;;-143.00;100.00
48358;BME280;41929;51.478;-0.026;2022-12-18T10:11:43;78823.19;;;-143.00;100.00
48358;BME280;41929;51.478;-0.026;2022-12-18T10:17:03;78827.13;;;-143.00;100.00
48358;BME280;41929;51.478;-0.026;2022-12-18T10:19:37;78805.44;;;-143.00;100.00
48358;BME280;41929;51.478;-0.026;2022-12-18T10:22:15;78791.63;;;-143.00;100.00
48358;BME280;41929;51.478;-0.026;2022-12-18T10:25:15;78791.63;;;-143.00;100.00
48358;BME280;41929;51.478;-0.026;2022-12-18T10:27:42;78793.59;;;-143.00;100.00
48358;BME280;41929;51.478;-0.026;2022-12-18T10:30:13;78793.59;;;-143.00;100.00
48358;BME280;41929;51.478;-0.026;2022-12-18T10:32:39;78779.78;;;-143.00;100.00
48358;BME280;41929;51.478;-0.026;2022-12-18T10:35:15;78769.91;;;-143.00;100.00
48358;BME280;41929;51.478;-0.026;2022-12-18T10:37:59;78765.97;;;-143.00;100.00
48358;BME280;41929;51.478;-0.026;2022-12-18T10:40:26;78763.97;;;-143.00;100.00
48358;BME280;41929;51.478;-0.026;2022-12-18T10:43:11;78754.13;;;-143.00;100.00
48358;BME280;41929;51.478;-0.026;2022-12-18T10:45:37;78754.13;;;-143.00;100.00
48358;BME280;41929;51.478;-0.026;2022-12-18T10:48:03;78756.09;;;-143.00;100.00
48358;BME280;41929;51.478;-0.026;2022-12-18T10:50:33;78738.31;;;-143.00;100.00
48358;BME280;41929;51.478;-0.026;2022-12-18T10:53:00;78730.44;;;-143.00;100.00
48358;BME280;41929;51.478;-0.026;2022-12-18T10:55:33;78718.59;;;-143.00;100.00
48358;BME280;41929;51.478;-0.026;2022-12-18T11:06:20;78667.28;;;-143.00;100.00
48358;BME280;41929;51.478;-0.026;2022-12-18T11:11:28;78667.28;;;-143.00;100.00
48358;BME280;41929;51.478;-0.026;2022-12-18T11:14:02;78651.50;;;-143.00;100.00
48358;BME280;41929;51.478;-0.026;2022-12-18T11:16:30;78643.59;;;-143.00;100.00
48358;BME280;41929;51.478;-0.026;2022-12-18T11:19:39;78627.81;;;-143.00;100.00
48358;BME280;41929;51.478;-0.026;2022-12-18T11:22:27;78633.72;;;-143.00;100.00
48358;BME280;41929;51.478;-0.026;2022-12-18T11:24:56;78608.06;;;-143.00;100.00
48358;BME280;41929;51.478;-0.026;2022-12-18T11:27:23;78610.03;;;-143.00;100.00
48358;BME280;41929;51.478;-0.026;2022-12-18T11:29:50;78596.22;;;-143.00;100.00
48358;BME280;41929;51.478;-0.026;2022-12-18T11:32:34;78596.22;;;-143.00;100.00
48358;BME280;41929;51.478;-0.026;2022-12-18T11:37:56;78580.44;;;-143.00;100.00
48358;BME280;41929;51.478;-0.026;2022-12-18T11:40:33;78594.25;;;-143.00;100.00
48358;BME280;41929;51.478;-0.026;2022-12-18T11:43:16;78592.28;;;-143.00;100.00
48358;BME280;41929;51.478;-0.026;2022-12-18T11:46:08;78578.47;;;-143.00;100.00
48358;BME280;41929;51.478;-0.026;2022-12-18T11:48:43;78582.41;;;-143.00;100.00
48358;BME280;41929;51.478;-0.026;2022-12-18T11:51:14;78584.38;;;-143.00;100.00
48358;BME280;41929;51.478;-0.026;2022-12-18T11:53:44;78586.38;;;-143.00;100.00
48358;BME280;41929;51.478;-0.026;2022-12-18T11:56:43;78584.38;;;-143.00;100.00
48358;BME280;41929;51.478;-0.026;2022-12-18T12:02:09;78586.38;;;-143.00;100.00
48358;BME280;41929;51.478;-0.026;2022-12-18T12:07:27;78552.81;;;-143.00;100.00
48358;BME280;41929;51.478;-0.026;2022-12-18T12:10:08;78544.91;;;-143.00;100.00
48358;BME280;41929;51.478;-0.026;2022-12-18T12:12:51;78556.75;;;-143.00;100.00
48358;BME280;41929;51.478;-0.026;2022-12-18T12:15:25;78546.91;;;-143.00;100.00
48358;BME280;41929;51.478;-0.026;2022-12-18T12:21:01;78550.84;;;-143.00;100.00
48358;BME280;41929;51.478;-0.026;2022-12-18T12:23:47;78537.03;;;-143.00;100.00
48358;BME280;41929;51.478;-0.026;2022-12-18T12:26:19;78533.09;;;-143.00;100.00
48358;BME280;41929;51.478;-0.026;2022-12-18T12:34:29;78515.31;;;-143.00;100.00
48358;BME280;41929;51.478;-0.026;2022-12-18T12:39:38;78501.50;;;-143.00;100.00
48358;BME280;41929;51.478;-0.026;2022-12-18T12:42:12;78493.63;;;-143.00;100.00
48358;BME280;41929;51.478;-0.026;2022-12-18T12:44:58;78497.56;;;-143.00;100.00
48358;BME280;41929;51.478;-0.026;2022-12-18T12:47:31;78483.75;;;-143.00;100.00
48358;BME280;41929;51.478;-0.026;2022-12-18T12:50:01;78479.81;;;-143.00;100.00
48358;BME280;41929;51.478;-0.026;2022-12-18T12:52:35;78465.97;;;-143.00;100.00
48358;BME280;41929;51.478;-0.026;2022-12-18T12:55:05;78483.75;;;-143.00;100.00
48358;BME280;41929;51.478;-0.026;2022-12-18T12:57:40;78481.78;;;-143.00;100.00
48358;BME280;41929;51.478;-0.026;2022-12-18T13:00:09;78462.03;;;-143.00;100.00
48358;BME280;41929;51.478;-0.026;2022-12-18T13:02:50;78448.22;;;-143.00;100.00
48358;BME280;41929;51.478;-0.026;2022-12-18T13:07:57;78452.16;;;-143.00;100.00
48358;BME280;41929;51.478;-0.026;2022-12-18T13:13:07;78460.06;;;-143.00;100.00
48358;BME280;41929;51.478;-0.026;2022-12-18T13:18:06;78448.22;;;-143.00;100.00
48358;BME280;41929;51.478;-0.026;2022-12-18T13:20:41;78452.16;;;-143.00;100.00
48358;BME280;41929;51.478;-0.026;2022-12-18T13:23:36;78456.13;;;-143.00;100.00
48358;BME280;41929;51.478;-0.026;2022-12-18T13:34:22;78422.56;;;-143.00;100.00
48358;BME280;41929;51.478;-0.026;2022-12-18T13:36:48;78414.69;;;-143.00;100.00
48358;BME280;41929;51.478;-0.026;2022-12-18T13:41:40;78422.56;;;-143.00;100.00
48358;BME280;41929;51.478;-0.026;2022-12-18T13:44:27;78408.75;;;-143.00;100.00
48358;BME280;41929;51.478;-0.026;2022-12-18T13:46:55;78426.50;;;-143.00;100.00
48358;BME280;41929;51.478;-0.026;2022-12-18T13:49:38;78410.72;;;-143.00;100.00
48358;BME280;41929;51.478;-0.026;2022-12-18T13:52:28;78398.88;;;-143.00;100.00